Time;durP1;ratioP1;P1;durP2;ratioP2;P2;SDS_P1;SDS_P2;PMS_P1;PMS_P2;Temp;Humidity;BMP_temperature;BMP_pressure;BME280_temperature;BME280_humidity;BME280_pressure;Samples;Min_cycle;Max_cycle;Signal;HPM_P1;HPM_P2
2024/02/27 00:03:44;;;;;;;0.35;0.32;;;19.10;38.50;;;;;;8359965;28;20032;-51
2024/02/27 00:07:45;;;;;;;0.30;0.30;;;19.00;38.50;;;;;;8359997;28;20025;-51
2024/02/27 00:11:47;;;;;;;0.30;0.30;;;19.10;38.10;;;;;;8359669;28;20418;-53
2024/02/27 00:15:48;;;;;;;0.45;0.45;;;19.10;37.80;;;;;;8359665;28;20033;-53
2024/02/27 00:19:49;;;;;;;0.30;0.30;;;19.20;37.70;;;;;;8359733;28;20033;-52
2024/02/27 00:23:50;;;;;;;0.30;0.30;;;19.20;37.50;;;;;;8359710;28;20501;-53
2024/02/27 00:27:50;;;;;;;0.40;0.30;;;19.20;38.00;;;;;;8359459;28;20024;-52
2024/02/27 00:31:51;;;;;;;0.30;0.30;;;19.20;37.30;;;;;;8359341;28;20060;-53
2024/02/27 00:35:52;;;;;;;0.30;0.30;;;19.20;37.20;;;;;;8359335;28;20126;-52
2024/02/27 00:39:53;;;;;;;0.30;0.30;;;19.20;37.20;;;;;;8359607;28;20036;-53
2024/02/27 00:43:53;;;;;;;0.40;0.40;;;19.20;37.10;;;;;;8357864;28;20037;-51
2024/02/27 00:47:56;;;;;;;0.30;0.30;;;19.20;38.00;;;;;;8362252;28;20029;-50
2024/02/27 00:51:57;;;;;;;0.43;0.43;;;19.10;38.60;;;;;;8365413;28;20279;-51
2024/02/27 00:55:58;;;;;;;0.30;0.30;;;19.00;38.50;;;;;;8363959;28;20111;-52
2024/02/27 01:00:04;;;;;;;0.30;0.30;;;19.10;38.00;;;;;;8365107;28;20386;-51
2024/02/27 01:04:04;;;;;;;0.40;0.40;;;19.10;37.80;;;;;;8365374;28;20108;-51
2024/02/27 01:08:05;;;;;;;0.40;0.40;;;19.10;37.60;;;;;;8365102;28;20037;-52
2024/02/27 01:12:06;;;;;;;0.40;0.40;;;19.10;37.50;;;;;;8364630;28;20056;-52
2024/02/27 01:16:07;;;;;;;0.43;0.32;;;19.10;37.40;;;;;;8364739;28;20207;-53
2024/02/27 01:20:08;;;;;;;0.28;0.28;;;19.20;37.30;;;;;;8364720;28;20056;-52
2024/02/27 01:24:09;;;;;;;0.30;0.30;;;19.20;37.30;;;;;;8364550;28;20029;-53
2024/02/27 01:28:09;;;;;;;0.40;0.40;;;19.20;37.20;;;;;;8364430;28;20071;-51
2024/02/27 01:32:10;;;;;;;0.75;0.45;;;19.20;37.10;;;;;;8364379;28;20033;-52
2024/02/27 01:36:11;;;;;;;0.50;0.50;;;19.10;38.00;;;;;;8364135;28;20102;-54
2024/02/27 01:40:12;;;;;;;0.30;0.30;;;19.00;38.70;;;;;;8364172;28;20757;-54
2024/02/27 01:44:13;;;;;;;0.52;0.30;;;19.00;38.40;;;;;;8363649;28;20036;-52
2024/02/27 01:48:14;;;;;;;0.30;0.30;;;19.00;38.10;;;;;;8363834;28;20411;-53
2024/02/27 01:52:16;;;;;;;0.40;0.40;;;19.10;37.80;;;;;;8363617;28;20111;-52
2024/02/27 01:56:18;;;;;;;0.40;0.40;;;19.10;37.60;;;;;;8363292;28;20097;-53
2024/02/27 02:00:20;;;;;;;0.60;0.32;;;19.10;37.50;;;;;;8362378;28;20467;-50
2024/02/27 02:04:20;;;;;;;0.40;0.40;;;19.10;37.40;;;;;;8363111;28;20025;-51
2024/02/27 02:08:21;;;;;;;0.40;0.40;;;19.10;37.30;;;;;;8363022;28;20044;-51
2024/02/27 02:12:22;;;;;;;0.40;0.40;;;19.20;37.20;;;;;;8363162;28;20412;-52
2024/02/27 02:16:23;;;;;;;0.30;0.30;;;19.10;37.10;;;;;;8362897;28;20033;-52
2024/02/27 02:20:24;;;;;;;0.68;0.43;;;19.20;37.10;;;;;;8362608;28;20033;-51
2024/02/27 02:24:27;;;;;;;0.30;0.30;;;19.10;38.10;;;;;;8362551;28;20055;-50
2024/02/27 02:28:29;;;;;;;0.40;0.40;;;18.90;38.70;;;;;;8362209;28;20136;-50
2024/02/27 02:32:30;;;;;;;0.40;0.40;;;18.90;38.30;;;;;;8362437;28;20029;-52
2024/02/27 02:36:31;;;;;;;0.40;0.40;;;19.00;38.10;;;;;;8362095;28;20341;-52
2024/02/27 02:40:31;;;;;;;0.40;0.40;;;19.00;37.80;;;;;;8362080;28;20295;-50
2024/02/27 02:44:32;;;;;;;0.77;0.32;;;19.00;37.60;;;;;;8361883;28;20025;-54
2024/02/27 02:48:33;;;;;;;0.45;0.45;;;19.10;37.50;;;;;;8361781;28;20029;-52
2024/02/27 02:52:35;;;;;;;0.43;0.30;;;19.10;37.40;;;;;;8361772;28;20561;-51
2024/02/27 02:56:36;;;;;;;0.45;0.30;;;19.10;37.30;;;;;;8361703;28;20028;-52
2024/02/27 03:00:37;;;;;;;0.40;0.40;;;19.10;37.30;;;;;;8361329;28;20135;-52
2024/02/27 03:04:38;;;;;;;0.50;0.43;;;19.10;37.20;;;;;;8360112;28;20033;-51
2024/02/27 03:08:39;;;;;;;;;;;19.10;37.10;;;;;;8361847;28;20036;-51
2024/02/27 03:12:44;;;;;;;0.30;0.30;;;19.00;38.30;;;;;;8360936;28;19921;-51
2024/02/27 03:16:46;;;;;;;0.30;0.30;;;18.90;38.70;;;;;;8359511;28;20032;-49
2024/02/27 03:20:46;;;;;;;0.30;0.30;;;18.90;38.30;;;;;;8361003;28;20124;-54
2024/02/27 03:24:47;;;;;;;0.30;0.30;;;19.00;38.00;;;;;;8361911;28;20033;-56
2024/02/27 03:28:48;;;;;;;0.60;0.40;;;19.00;37.80;;;;;;8360510;28;20295;-55
2024/02/27 03:32:48;;;;;;;0.40;0.40;;;19.00;37.60;;;;;;8360493;28;20937;-54
2024/02/27 03:36:49;;;;;;;0.43;0.43;;;19.10;37.50;;;;;;8361143;28;20037;-54
2024/02/27 03:40:50;;;;;;;0.35;0.32;;;19.10;37.40;;;;;;8360426;28;20043;-55
2024/02/27 03:44:50;;;;;;;0.35;0.35;;;19.10;37.30;;;;;;8360278;28;20060;-56
2024/02/27 03:48:51;;;;;;;0.50;0.50;;;19.10;37.30;;;;;;8360019;28;20037;-54
2024/02/27 03:52:52;;;;;;;0.30;0.30;;;19.10;37.20;;;;;;8360388;28;20052;-56
2024/02/27 03:56:52;;;;;;;0.25;0.25;;;19.10;37.10;;;;;;8360103;28;20076;-56
2024/02/27 04:00:53;;;;;;;0.30;0.30;;;19.00;38.30;;;;;;8359931;28;20055;-56
2024/02/27 04:04:54;;;;;;;0.47;0.47;;;18.90;38.70;;;;;;8360048;28;20025;-56
2024/02/27 04:08:54;;;;;;;0.50;0.40;;;18.90;38.30;;;;;;8359981;28;20100;-54
2024/02/27 04:12:55;;;;;;;1.48;0.40;;;19.00;38.00;;;;;;8359489;28;20080;-55
2024/02/27 04:16:56;;;;;;;0.35;0.30;;;19.00;37.80;;;;;;8359773;28;20044;-56
2024/02/27 04:20:57;;;;;;;0.30;0.30;;;19.10;37.60;;;;;;8359763;28;20029;-56
2024/02/27 04:24:58;;;;;;;0.40;0.30;;;19.10;37.50;;;;;;8366296;28;20291;-56
2024/02/27 04:28:59;;;;;;;0.20;0.20;;;19.10;37.40;;;;;;8365943;28;20029;-56
2024/02/27 04:33:00;;;;;;;0.70;0.52;;;19.10;37.30;;;;;;8366221;28;20271;-52
2024/02/27 04:37:01;;;;;;;0.40;0.40;;;19.10;37.20;;;;;;8365942;28;20094;-54
2024/02/27 04:41:02;;;;;;;0.45;0.43;;;19.10;37.20;;;;;;8365622;28;20732;-53
2024/02/27 04:45:04;;;;;;;0.40;0.40;;;19.10;37.10;;;;;;8365720;28;20051;-53
2024/02/27 04:49:04;;;;;;;0.52;0.50;;;19.00;38.30;;;;;;8365665;28;20044;-54
2024/02/27 04:53:05;;;;;;;0.63;0.45;;;18.90;38.80;;;;;;8365562;28;20033;-52
2024/02/27 04:57:07;;;;;;;0.50;0.32;;;18.90;38.20;;;;;;8365076;28;20112;-53
2024/02/27 05:01:14;;;;;;;;;;;18.90;37.90;;;;;;8364477;28;20025;-52
2024/02/27 05:05:14;;;;;;;0.47;0.40;;;19.00;37.70;;;;;;8365156;28;19912;-52
2024/02/27 05:09:15;;;;;;;0.57;0.50;;;19.00;37.60;;;;;;8365145;28;20051;-53
2024/02/27 05:13:16;;;;;;;0.30;0.30;;;19.00;37.50;;;;;;8363318;28;20140;-53
2024/02/27 05:17:16;;;;;;;0.70;0.50;;;19.10;37.40;;;;;;8363329;28;20037;-54
2024/02/27 05:21:18;;;;;;;0.35;0.30;;;19.10;37.20;;;;;;8363304;28;20498;-53
2024/02/27 05:25:19;;;;;;;0.38;0.30;;;19.10;37.10;;;;;;8363458;28;20434;-53
2024/02/27 05:29:20;;;;;;;0.53;0.50;;;19.20;37.50;;;;;;8365097;28;20257;-54
2024/02/27 05:33:20;;;;;;;0.47;0.43;;;19.20;37.00;;;;;;8363837;28;20275;-53
2024/02/27 05:37:21;;;;;;;0.45;0.40;;;19.10;38.20;;;;;;8363798;28;20156;-53
2024/02/27 05:41:22;;;;;;;0.47;0.47;;;19.00;38.60;;;;;;8363721;28;20029;-52
2024/02/27 05:45:23;;;;;;;0.38;0.30;;;19.00;38.00;;;;;;8362614;28;20044;-50
2024/02/27 05:49:24;;;;;;;0.50;0.50;;;19.00;37.60;;;;;;8363778;28;20491;-53
2024/02/27 05:53:25;;;;;;;0.40;0.40;;;19.10;37.50;;;;;;8364158;28;20029;-50
2024/02/27 05:57:25;;;;;;;;;;;19.10;37.40;;;;;;8363850;28;20079;-52
2024/02/27 06:01:27;;;;;;;0.50;0.30;;;19.10;37.20;;;;;;8363279;28;19912;-50
2024/02/27 06:05:27;;;;;;;0.60;0.50;;;19.20;37.20;;;;;;8363033;28;20411;-51
2024/02/27 06:09:28;;;;;;;0.47;0.40;;;19.20;37.00;;;;;;8363188;28;20041;-49
2024/02/27 06:13:29;;;;;;;0.43;0.43;;;19.20;36.90;;;;;;8362637;28;20284;-52
2024/02/27 06:17:30;;;;;;;0.40;0.40;;;19.30;36.90;;;;;;8362716;28;20048;-52
2024/02/27 06:25:50;;;;;;;0.65;0.40;;;19.10;38.20;;;;;;8361317;28;20064;-51
2024/02/27 06:29:51;;;;;;;0.37;0.30;;;19.10;38.30;;;;;;8362506;28;20032;-52
2024/02/27 06:33:51;;;;;;;0.50;0.47;;;19.10;37.70;;;;;;8362143;28;20390;-52
2024/02/27 06:37:52;;;;;;;0.50;0.47;;;19.20;37.50;;;;;;8362478;28;20041;-51
2024/02/27 06:41:53;;;;;;;0.95;0.60;;;19.20;37.30;;;;;;8362000;28;20091;-52
2024/02/27 06:45:54;;;;;;;0.40;0.40;;;19.30;37.20;;;;;;8361224;28;20032;-51
2024/02/27 06:49:58;;;;;;;0.35;0.35;;;19.30;37.10;;;;;;8361970;28;20099;-52
2024/02/27 06:53:58;;;;;;;0.50;0.50;;;19.30;37.00;;;;;;8361754;28;20110;-53
2024/02/27 06:57:59;;;;;;;0.40;0.40;;;19.30;36.90;;;;;;8361459;28;20106;-53
2024/02/27 07:02:00;;;;;;;0.55;0.55;;;19.30;36.80;;;;;;8361192;28;21002;-54
2024/02/27 07:06:01;;;;;;;0.50;0.50;;;19.30;36.70;;;;;;8361397;28;20041;-52
2024/02/27 07:10:02;;;;;;;0.63;0.50;;;19.30;37.50;;;;;;8361466;28;20483;-53
2024/02/27 07:14:02;;;;;;;0.57;0.47;;;19.20;38.20;;;;;;8360929;28;20117;-53
2024/02/27 07:18:04;;;;;;;0.40;0.40;;;19.10;38.10;;;;;;8360834;28;20037;-54
2024/02/27 07:22:05;;;;;;;;;;;19.20;37.60;;;;;;8361223;28;20568;-53
2024/02/27 07:26:05;;;;;;;0.40;0.40;;;19.20;37.40;;;;;;8360703;28;19912;-53
2024/02/27 07:30:06;;;;;;;0.40;0.40;;;19.30;37.30;;;;;;8360840;28;20061;-52
2024/02/27 07:34:11;;;;;;;0.80;0.30;;;19.30;37.10;;;;;;8360406;28;20291;-53
2024/02/27 07:38:11;;;;;;;0.52;0.40;;;19.30;37.00;;;;;;8359192;28;20041;-53
2024/02/27 07:42:12;;;;;;;0.55;0.40;;;19.30;37.40;;;;;;8359026;28;20033;-54
2024/02/27 07:46:14;;;;;;;0.45;0.45;;;19.30;36.90;;;;;;8360194;28;20475;-54
2024/02/27 07:50:16;;;;;;;0.75;0.40;;;19.30;37.30;;;;;;8358990;28;20056;-54
2024/02/27 07:54:17;;;;;;;0.40;0.40;;;19.30;36.70;;;;;;8359999;28;20036;-53
2024/02/27 07:58:17;;;;;;;0.85;0.57;;;19.30;37.60;;;;;;8358980;28;20037;-53
2024/02/27 08:02:18;;;;;;;1.92;0.50;;;19.20;38.30;;;;;;8358644;28;20037;-53
2024/02/27 08:06:20;;;;;;;0.63;0.47;;;19.20;38.00;;;;;;8360040;28;20033;-54
2024/02/27 08:10:21;;;;;;;0.50;0.50;;;19.20;37.60;;;;;;8360293;28;20037;-53
2024/02/27 08:14:21;;;;;;;0.40;0.40;;;19.30;37.40;;;;;;8359621;28;20086;-53
2024/02/27 08:18:25;;;;;;;0.50;0.50;;;19.30;37.20;;;;;;8359622;28;20287;-54
2024/02/27 08:22:27;;;;;;;0.50;0.50;;;19.30;37.10;;;;;;8359717;28;20072;-54
2024/02/27 08:26:28;;;;;;;0.50;0.50;;;19.30;37.00;;;;;;8359516;28;20036;-53
2024/02/27 08:30:29;;;;;;;0.47;0.40;;;19.30;36.90;;;;;;8359692;28;20490;-52
2024/02/27 08:34:30;;;;;;;0.63;0.50;;;19.30;36.90;;;;;;8359729;28;20402;-52
2024/02/27 08:38:30;;;;;;;0.45;0.45;;;19.30;36.80;;;;;;8359386;28;20472;-54
2024/02/27 08:42:33;;;;;;;0.45;0.38;;;19.30;36.80;;;;;;8359472;28;20040;-53
2024/02/27 08:46:33;;;;;;;0.30;0.30;;;19.30;37.80;;;;;;8359371;28;20064;-53
2024/02/27 08:50:34;;;;;;;0.32;0.32;;;19.20;38.30;;;;;;8359290;28;20021;-52
2024/02/27 08:54:35;;;;;;;0.60;0.40;;;19.10;37.90;;;;;;8359329;28;20048;-54
2024/02/27 08:58:39;;;;;;;0.50;0.50;;;19.20;37.60;;;;;;8358885;28;20046;-53
2024/02/27 09:02:39;;;;;;;0.80;0.50;;;19.30;37.30;;;;;;8359166;28;20101;-53
2024/02/27 09:06:43;;;;;;;0.47;0.47;;;19.30;37.20;;;;;;8359142;28;20029;-54
2024/02/27 09:10:44;;;;;;;0.70;0.60;;;19.30;37.10;;;;;;8364711;28;20470;-52
2024/02/27 09:14:45;;;;;;;0.40;0.40;;;19.30;37.00;;;;;;8364817;28;20114;-54
2024/02/27 09:18:45;;;;;;;0.40;0.40;;;19.30;36.90;;;;;;8364909;28;20037;-53
2024/02/27 09:22:46;;;;;;;0.50;0.50;;;19.30;36.80;;;;;;8364683;28;20033;-53
2024/02/27 09:26:47;;;;;;;0.73;0.70;;;19.30;36.70;;;;;;8364139;28;20033;-53
2024/02/27 09:30:48;;;;;;;0.60;0.40;;;19.40;36.70;;;;;;8364330;28;20033;-54
2024/02/27 09:34:50;;;;;;;0.60;0.50;;;19.30;37.80;;;;;;8363186;28;20033;-53
2024/02/27 09:38:51;;;;;;;0.38;0.38;;;19.20;38.30;;;;;;8364030;28;20029;-54
2024/02/27 09:42:56;;;;;;;0.85;0.70;;;19.20;37.90;;;;;;8363753;28;20029;-53
2024/02/27 09:46:58;;;;;;;0.50;0.50;;;19.20;37.50;;;;;;8362292;28;20157;-54
2024/02/27 09:51:01;;;;;;;0.43;0.43;;;19.30;37.30;;;;;;8363708;28;20368;-53
2024/02/27 09:55:03;;;;;;;0.52;0.50;;;19.30;37.10;;;;;;8363643;28;20029;-56
2024/02/27 09:59:05;;;;;;;0.75;0.60;;;19.30;37.00;;;;;;8363287;28;20033;-55
2024/02/27 10:03:07;;;;;;;0.45;0.45;;;19.30;36.90;;;;;;8363194;28;20386;-56
2024/02/27 10:07:10;;;;;;;0.40;0.40;;;19.30;36.80;;;;;;8363239;28;20093;-56
2024/02/27 10:11:12;;;;;;;0.50;0.50;;;19.30;36.70;;;;;;8363052;28;20045;-55
2024/02/27 10:15:14;;;;;;;0.40;0.40;;;19.40;36.70;;;;;;8363260;28;20032;-54
2024/02/27 10:19:16;;;;;;;0.55;0.40;;;19.40;36.70;;;;;;8362311;28;20041;-54
2024/02/27 10:23:17;;;;;;;0.40;0.40;;;19.30;37.80;;;;;;8361595;28;20021;-55
2024/02/27 10:27:20;;;;;;;0.30;0.30;;;19.20;38.20;;;;;;8362813;28;20037;-55
2024/02/27 10:31:21;;;;;;;0.40;0.40;;;19.20;37.70;;;;;;8362653;28;20021;-55
2024/02/27 10:35:24;;;;;;;0.50;0.50;;;19.30;37.40;;;;;;8362606;28;20029;-56
2024/02/27 10:39:25;;;;;;;0.47;0.47;;;19.30;37.20;;;;;;8362259;28;20090;-55
2024/02/27 10:43:26;;;;;;;0.45;0.45;;;19.30;37.10;;;;;;8362096;28;20017;-55
2024/02/27 10:47:27;;;;;;;0.32;0.32;;;19.30;37.00;;;;;;8362042;28;20029;-56
2024/02/27 10:51:28;;;;;;;0.50;0.50;;;19.30;36.80;;;;;;8361880;28;20037;-57
2024/02/27 10:55:30;;;;;;;0.50;0.50;;;19.40;36.80;;;;;;8361908;28;20037;-56
2024/02/27 10:59:35;;;;;;;0.40;0.40;;;19.40;36.70;;;;;;8361532;28;20083;-55
2024/02/27 11:03:41;;;;;;;0.40;0.40;;;19.40;36.60;;;;;;8361375;28;20520;-54
2024/02/27 11:07:43;;;;;;;0.57;0.52;;;19.40;36.60;;;;;;8361469;28;20091;-55
2024/02/27 11:11:47;;;;;;;0.65;0.40;;;19.30;38.00;;;;;;8362050;28;20128;-55
2024/02/27 11:15:52;;;;;;;0.50;0.50;;;19.20;38.30;;;;;;8361206;28;20029;-56
2024/02/27 11:19:54;;;;;;;0.60;0.60;;;19.20;37.70;;;;;;8361139;28;20491;-56
2024/02/27 11:23:55;;;;;;;0.30;0.30;;;19.20;37.40;;;;;;8361225;28;20098;-53
2024/02/27 11:27:57;;;;;;;0.45;0.45;;;19.30;37.20;;;;;;8360757;28;20025;-55
2024/02/27 11:31:59;;;;;;;0.60;0.60;;;19.30;37.10;;;;;;8359132;28;20350;-53
2024/02/27 11:36:00;;;;;;;0.40;0.40;;;19.30;37.00;;;;;;8360574;28;20033;-49
2024/02/27 11:40:04;;;;;;;0.60;0.50;;;19.30;36.90;;;;;;8360675;28;20522;-52
2024/02/27 11:44:05;;;;;;;0.50;0.50;;;19.30;36.80;;;;;;8360397;28;20033;-53
2024/02/27 11:48:09;;;;;;;0.52;0.50;;;19.30;36.80;;;;;;8359072;28;20127;-51
2024/02/27 11:52:09;;;;;;;0.45;0.45;;;19.30;36.70;;;;;;8360291;28;20106;-52
2024/02/27 11:56:12;;;;;;;0.50;0.50;;;19.30;36.90;;;;;;8360115;28;20044;-50
2024/02/27 12:00:14;;;;;;;0.50;0.50;;;19.20;38.00;;;;;;8360261;28;20089;-50
2024/02/27 12:04:15;;;;;;;0.70;0.70;;;19.10;38.20;;;;;;8358814;28;20112;-51
2024/02/27 12:08:16;;;;;;;0.43;0.40;;;19.20;37.70;;;;;;8359018;28;20028;-50
2024/02/27 12:12:20;;;;;;;0.30;0.30;;;19.20;37.30;;;;;;8360131;28;20303;-50
2024/02/27 12:16:23;;;;;;;0.50;0.50;;;19.30;37.20;;;;;;8359945;28;20037;-51
2024/02/27 12:20:24;;;;;;;0.90;0.60;;;19.30;37.40;;;;;;8359892;28;20033;-52
2024/02/27 12:24:24;;;;;;;0.45;0.45;;;19.30;37.00;;;;;;8359782;28;20033;-50
2024/02/27 12:28:25;;;;;;;0.57;0.57;;;19.30;36.90;;;;;;8359706;28;20025;-51
2024/02/27 12:32:26;;;;;;;0.50;0.50;;;19.40;36.80;;;;;;8359568;28;20483;-52
2024/02/27 12:36:27;;;;;;;0.50;0.50;;;19.30;36.70;;;;;;8358197;28;20493;-51
2024/02/27 12:40:28;;;;;;;0.50;0.50;;;19.40;36.70;;;;;;8359339;28;20088;-52
2024/02/27 12:44:29;;;;;;;;;;;19.30;37.30;;;;;;8364323;28;20155;-56
2024/02/27 12:48:30;;;;;;;0.75;0.60;;;19.20;38.10;;;;;;8365773;28;19904;-56
2024/02/27 12:52:31;;;;;;;0.70;0.57;;;19.20;38.10;;;;;;8365396;28;20123;-55
2024/02/27 12:56:33;;;;;;;0.52;0.52;;;19.20;37.60;;;;;;8365358;28;20502;-55
2024/02/27 13:00:34;;;;;;;0.52;0.52;;;19.30;37.30;;;;;;8365691;28;20032;-54
2024/02/27 13:04:36;;;;;;;0.63;0.40;;;19.30;37.20;;;;;;8365713;28;20029;-55
2024/02/27 13:08:36;;;;;;;0.57;0.57;;;19.30;37.00;;;;;;8365000;28;20438;-57
2024/02/27 13:12:37;;;;;;;0.63;0.63;;;19.30;36.90;;;;;;8364683;28;20063;-55
2024/02/27 13:16:38;;;;;;;0.50;0.50;;;19.30;36.90;;;;;;8364833;28;20280;-57
2024/02/27 13:20:39;;;;;;;1.67;0.98;;;19.30;36.80;;;;;;8364497;28;20510;-56
2024/02/27 13:24:39;;;;;;;0.50;0.40;;;19.30;36.70;;;;;;8364751;28;20033;-56
2024/02/27 13:28:40;;;;;;;0.50;0.50;;;19.40;36.70;;;;;;8364095;28;20037;-56
2024/02/27 13:32:41;;;;;;;0.77;0.60;;;19.30;37.50;;;;;;8364348;28;20686;-55
2024/02/27 13:36:43;;;;;;;0.50;0.50;;;19.20;38.20;;;;;;8364163;28;20037;-54
2024/02/27 13:40:44;;;;;;;0.70;0.55;;;19.10;38.10;;;;;;8364036;28;20051;-56
2024/02/27 13:44:45;;;;;;;0.47;0.47;;;19.20;37.60;;;;;;8362608;28;20037;-54
2024/02/27 13:48:46;;;;;;;0.60;0.60;;;19.30;37.30;;;;;;8363796;28;20079;-53
2024/02/27 13:52:46;;;;;;;0.40;0.40;;;19.20;37.10;;;;;;8363708;28;20056;-51
2024/02/27 13:56:47;;;;;;;0.65;0.63;;;19.30;37.00;;;;;;8363255;28;20116;-52
2024/02/27 14:00:48;;;;;;;0.70;0.67;;;19.30;36.90;;;;;;8363419;28;20061;-50
2024/02/27 14:04:49;;;;;;;1.05;0.50;;;19.30;36.80;;;;;;8363462;28;20679;-52
2024/02/27 14:08:49;;;;;;;0.40;0.40;;;19.30;36.70;;;;;;8363149;28;20033;-51
2024/02/27 14:12:51;;;;;;;0.50;0.50;;;19.30;36.70;;;;;;8361751;28;20110;-51
2024/02/27 14:16:51;;;;;;;0.70;0.50;;;19.30;36.70;;;;;;8362888;28;20025;-50
2024/02/27 14:20:52;;;;;;;0.50;0.50;;;19.30;37.70;;;;;;8362807;28;20479;-49
2024/02/27 14:24:53;;;;;;;0.77;0.70;;;19.20;38.30;;;;;;8362764;28;20079;-50
2024/02/27 14:28:54;;;;;;;0.50;0.50;;;19.10;38.00;;;;;;8362452;28;20287;-51
2024/02/27 14:32:55;;;;;;;0.60;0.60;;;19.20;37.60;;;;;;8362346;28;20120;-52
2024/02/27 14:36:55;;;;;;;0.80;0.80;;;19.20;37.30;;;;;;8362243;28;20322;-52
2024/02/27 14:40:56;;;;;;;0.68;0.68;;;19.30;37.20;;;;;;8362109;28;20041;-51
2024/02/27 14:44:57;;;;;;;0.60;0.60;;;19.30;37.10;;;;;;8361913;28;20029;-51
2024/02/27 14:48:58;;;;;;;0.47;0.47;;;19.30;37.00;;;;;;8361860;28;20055;-51
2024/02/27 14:52:58;;;;;;;0.43;0.43;;;19.30;36.90;;;;;;8361677;28;20029;-51
2024/02/27 14:56:59;;;;;;;0.73;0.60;;;19.30;36.80;;;;;;8361701;28;20394;-51
2024/02/27 15:01:00;;;;;;;0.60;0.60;;;19.40;36.80;;;;;;8361471;28;20033;-51
2024/02/27 15:05:01;;;;;;;0.65;0.50;;;19.40;36.70;;;;;;8361202;28;20048;-53
2024/02/27 15:09:01;;;;;;;0.63;0.60;;;19.30;38.30;;;;;;8361442;28;20029;-53
2024/02/27 15:13:03;;;;;;;0.70;0.70;;;19.20;38.30;;;;;;8360965;28;20049;-52
2024/02/27 15:17:05;;;;;;;0.63;0.63;;;19.20;37.90;;;;;;8361627;28;20029;-53
2024/02/27 15:21:06;;;;;;;0.50;0.50;;;19.20;37.50;;;;;;8359671;28;20067;-52
2024/02/27 15:25:08;;;;;;;1.15;0.50;;;19.30;37.30;;;;;;8361147;28;20036;-53
2024/02/27 15:29:09;;;;;;;1.08;0.60;;;19.30;37.20;;;;;;8360757;28;20043;-54
2024/02/27 15:33:10;;;;;;;0.95;0.80;;;19.30;37.00;;;;;;8360650;28;20037;-54
2024/02/27 15:37:10;;;;;;;0.80;0.70;;;19.30;36.90;;;;;;8360697;28;20090;-54
2024/02/27 15:41:11;;;;;;;0.50;0.50;;;19.30;36.80;;;;;;8360385;28;20033;-53
2024/02/27 15:45:12;;;;;;;1.20;1.13;;;19.30;36.80;;;;;;8360424;28;20032;-54
2024/02/27 15:49:16;;;;;;;0.88;0.50;;;19.40;36.80;;;;;;8360418;28;20033;-53
2024/02/27 15:53:16;;;;;;;0.70;0.70;;;19.40;36.70;;;;;;8360205;28;20120;-54
2024/02/27 15:57:17;;;;;;;0.68;0.68;;;19.30;37.80;;;;;;8360600;28;20466;-53
2024/02/27 16:01:18;;;;;;;0.70;0.50;;;19.20;38.30;;;;;;8360016;28;20036;-53
2024/02/27 16:05:29;;;;;;;0.90;0.80;;;19.10;37.90;;;;;;8360718;28;20282;-54
2024/02/27 16:09:30;;;;;;;;;;;19.20;37.60;;;;;;8360590;28;20280;-54
2024/02/27 16:13:30;;;;;;;0.93;0.70;;;19.20;37.30;;;;;;8359853;28;19930;-56
2024/02/27 16:17:32;;;;;;;0.55;0.55;;;19.30;37.20;;;;;;8361140;28;20069;-54
2024/02/27 16:21:39;;;;;;;;;;;19.30;37.10;;;;;;8367189;28;20033;-55
2024/02/27 16:25:39;;;;;;;0.70;0.70;;;19.30;37.00;;;;;;8366232;28;19905;-55
2024/02/27 16:29:40;;;;;;;1.02;0.93;;;19.30;36.90;;;;;;8366506;28;20079;-56
2024/02/27 16:33:41;;;;;;;0.88;0.73;;;19.30;36.80;;;;;;8366649;28;20067;-56
2024/02/27 16:37:42;;;;;;;0.63;0.60;;;19.40;36.70;;;;;;8365924;28;20045;-56
2024/02/27 16:41:42;;;;;;;0.70;0.70;;;19.40;36.70;;;;;;8365791;28;20029;-56
2024/02/27 16:45:43;;;;;;;0.90;0.80;;;19.30;38.00;;;;;;8366036;28;20033;-54
2024/02/27 16:49:45;;;;;;;0.82;0.70;;;19.20;38.40;;;;;;8365918;28;20287;-55
2024/02/27 16:53:46;;;;;;;0.45;0.40;;;19.20;37.80;;;;;;8365426;28;20029;-57
2024/02/27 16:57:46;;;;;;;0.63;0.60;;;19.20;37.50;;;;;;8365552;28;20192;-56
2024/02/27 17:01:47;;;;;;;1.15;0.70;;;19.30;37.30;;;;;;8365931;28;20067;-55
2024/02/27 17:05:48;;;;;;;0.77;0.53;;;19.20;37.20;;;;;;8365010;28;20368;-56
2024/02/27 17:09:49;;;;;;;0.70;0.70;;;19.30;37.10;;;;;;8365165;28;20370;-56
2024/02/27 17:13:50;;;;;;;0.65;0.65;;;19.30;37.00;;;;;;8363634;28;20061;-55
2024/02/27 17:17:51;;;;;;;;;;;19.30;36.90;;;;;;8362134;28;20045;-56
2024/02/27 17:21:52;;;;;;;0.63;0.63;;;19.30;36.80;;;;;;8362576;28;19913;-56
2024/02/27 17:25:53;;;;;;;1.10;1.00;;;19.40;36.80;;;;;;8362717;28;20441;-54
2024/02/27 17:29:54;;;;;;;2.60;0.90;;;19.40;36.70;;;;;;8362543;28;20041;-56
2024/02/27 17:33:55;;;;;;;0.75;0.65;;;19.30;38.10;;;;;;8362478;28;20137;-56
2024/02/27 17:37:55;;;;;;;0.77;0.70;;;19.20;38.40;;;;;;8362252;28;20040;-55
2024/02/27 17:41:56;;;;;;;0.50;0.50;;;19.30;37.80;;;;;;8362081;28;20299;-56
2024/02/27 17:45:57;;;;;;;0.57;0.57;;;19.30;37.50;;;;;;8362343;28;20383;-55
2024/02/27 17:49:58;;;;;;;0.60;0.60;;;19.40;37.30;;;;;;8362078;28;20393;-56
2024/02/27 17:53:58;;;;;;;0.73;0.63;;;19.40;37.10;;;;;;8361939;28;20091;-56
2024/02/27 17:57:59;;;;;;;0.53;0.53;;;19.40;37.00;;;;;;8361895;28;20029;-56
2024/02/27 18:02:00;;;;;;;0.65;0.65;;;19.40;36.90;;;;;;8361743;28;20291;-56
2024/02/27 18:06:01;;;;;;;0.60;0.60;;;19.40;36.90;;;;;;8351228;28;20037;-57
2024/02/27 18:10:01;;;;;;;1.63;0.88;;;19.40;36.90;;;;;;8341253;28;20324;-56
2024/02/27 18:14:03;;;;;;;1.27;0.80;;;19.40;36.80;;;;;;8286180;28;1447210;-57
2024/02/27 18:18:04;;;;;;;1.77;1.08;;;19.40;36.90;;;;;;8330336;28;20032;-54
2024/02/27 18:22:06;;;;;;;2.10;0.80;;;19.40;38.60;;;;;;8330214;28;20029;-54
2024/02/27 18:26:07;;;;;;;4.30;0.77;;;19.40;39.00;;;;;;8334062;28;20029;-55
2024/02/27 18:30:10;;;;;;;7.28;0.90;;;19.50;38.70;;;;;;8365008;28;20044;-55
2024/02/27 18:34:11;;;;;;;1.88;0.90;;;19.50;38.20;;;;;;8351172;28;20219;-48
2024/02/27 18:38:11;;;;;;;1.55;1.15;;;19.60;38.60;;;;;;8350922;28;20052;-51
2024/02/27 18:42:12;;;;;;;2.05;1.30;;;19.70;39.10;;;;;;8356562;28;20040;-49
2024/02/27 18:46:13;;;;;;;3.30;1.20;;;19.70;39.10;;;;;;8342909;28;20033;-55
2024/02/27 18:50:14;;;;;;;5.28;1.30;;;19.90;39.20;;;;;;8347403;28;20029;-48
2024/02/27 18:54:14;;;;;;;2.63;1.33;;;20.00;39.50;;;;;;8359882;28;20086;-44
2024/02/27 18:58:15;;;;;;;3.92;1.58;;;20.00;39.60;;;;;;8353395;28;20033;-45
2024/02/27 19:02:16;;;;;;;3.83;1.45;;;20.10;39.80;;;;;;8347004;28;20041;-52
2024/02/27 19:06:16;;;;;;;5.18;1.30;;;20.10;40.20;;;;;;8345865;28;20033;-51
2024/02/27 19:10:17;;;;;;;5.65;1.50;;;20.10;42.40;;;;;;8351755;28;20048;-54
2024/02/27 19:14:18;;;;;;;6.95;1.77;;;20.10;42.50;;;;;;8351008;28;20068;-48
2024/02/27 19:18:18;;;;;;;4.60;1.42;;;20.20;42.20;;;;;;8343024;28;20037;-53
2024/02/27 19:22:19;;;;;;;6.65;1.70;;;20.30;41.70;;;;;;8345316;28;20100;-48
2024/02/27 19:26:20;;;;;;;2.67;1.38;;;20.40;41.50;;;;;;8355367;28;20045;-48
2024/02/27 19:30:20;;;;;;;11.13;1.60;;;20.40;41.30;;;;;;8354238;28;20371;-52
2024/02/27 19:34:21;;;;;;;7.15;2.15;;;20.40;41.40;;;;;;8356048;28;20033;-50
2024/02/27 19:38:22;;;;;;;8.00;2.50;;;20.40;41.50;;;;;;8339523;28;20033;-52
2024/02/27 19:42:23;;;;;;;7.30;2.35;;;20.40;41.10;;;;;;8349415;28;20075;-50
2024/02/27 19:46:24;;;;;;;9.38;2.63;;;20.40;41.00;;;;;;8356725;28;20048;-51
2024/02/27 19:50:25;;;;;;;5.45;2.00;;;20.40;41.30;;;;;;8355072;28;20086;-48
2024/02/27 19:54:26;;;;;;;9.90;2.65;;;20.50;42.10;;;;;;8354783;28;20017;-48
2024/02/27 19:58:26;;;;;;;11.02;2.17;;;20.60;42.20;;;;;;8357703;28;20060;-54
2024/02/27 20:02:27;;;;;;;5.78;2.45;;;20.60;42.20;;;;;;8353397;28;20041;-50
2024/02/27 20:06:28;;;;;;;7.90;2.20;;;20.60;42.50;;;;;;8358111;28;20131;-56
2024/02/27 20:10:28;;;;;;;6.93;2.42;;;20.60;43.30;;;;;;8351993;28;20037;-53
2024/02/27 20:14:29;;;;;;;8.48;1.75;;;20.50;44.00;;;;;;8340924;28;20091;-54
2024/02/27 20:18:30;;;;;;;3.22;1.90;;;20.30;44.30;;;;;;8343016;28;20099;-52
2024/02/27 20:22:30;;;;;;;7.57;2.08;;;20.30;44.60;;;;;;8345823;28;20045;-52
2024/02/27 20:26:31;;;;;;;8.90;2.35;;;20.30;44.90;;;;;;8349210;28;20067;-53
2024/02/27 20:30:32;;;;;;;8.20;1.92;;;20.30;44.80;;;;;;8346252;28;20064;-49
2024/02/27 20:34:33;;;;;;;12.32;2.60;;;20.30;44.60;;;;;;8348585;28;20045;-48
2024/02/27 20:38:33;;;;;;;6.13;2.30;;;20.30;45.30;;;;;;8337101;28;20117;-53
2024/02/27 20:42:34;;;;;;;11.80;3.10;;;20.30;45.20;;;;;;8357442;28;20099;-53
2024/02/27 20:46:36;;;;;;;4.57;2.17;;;20.30;45.90;;;;;;8341001;28;20053;-56
2024/02/27 20:50:36;;;;;;;;;;;20.30;45.60;;;;;;8337316;28;20041;-48
2024/02/27 20:54:37;;;;;;;4.43;2.10;;;20.30;45.70;;;;;;8340195;28;19913;-51
2024/02/27 20:58:37;;;;;;;8.52;3.60;;;20.30;45.90;;;;;;8338027;28;20108;-54
2024/02/27 21:02:39;;;;;;;19.23;2.67;;;20.20;45.80;;;;;;8337336;28;20104;-53